Time;durP1;ratioP1;P1;durP2;ratioP2;P2;SDS_P1;SDS_P2;PMS_P1;PMS_P2;Temp;Humidity;BMP_temperature;BMP_pressure;BME280_temperature;BME280_humidity;BME280_pressure;Samples;Min_cycle;Max_cycle;Signal;HPM_P1;HPM_P2
2023/09/06 00:01:24;;;;;;;10.95;10.45;;;;;;;;;;5080859;28;20017;-61
2023/09/06 00:03:50;;;;;;;11.35;10.85;;;;;;;;;;5088273;28;20105;-61
2023/09/06 00:06:16;;;;;;;11.15;10.65;;;;;;;;;;5087675;28;20115;-61
2023/09/06 00:08:41;;;;;;;11.10;10.60;;;;;;;;;;5085936;28;20030;-61
2023/09/06 00:11:06;;;;;;;11.55;11.05;;;;;;;;;;5088674;28;20487;-60
2023/09/06 00:13:32;;;;;;;11.13;10.63;;;;;;;;;;5084668;28;20494;-62
2023/09/06 00:15:59;;;;;;;11.18;10.68;;;;;;;;;;5080222;28;20020;-61
2023/09/06 00:18:24;;;;;;;10.95;10.45;;;;;;;;;;5085943;28;20510;-61
2023/09/06 00:20:50;;;;;;;10.85;10.35;;;;;;;;;;5080328;28;20021;-61
2023/09/06 00:23:17;;;;;;;10.80;10.30;;;;;;;;;;5087745;28;20020;-60
2023/09/06 00:25:43;;;;;;;11.13;10.63;;;;;;;;;;5084813;28;20020;-60
2023/09/06 00:28:08;;;;;;;10.95;10.45;;;;;;;;;;5093210;28;20023;-60
2023/09/06 00:30:34;;;;;;;11.27;10.77;;;;;;;;;;5089963;28;20512;-61
2023/09/06 00:32:59;;;;;;;11.25;10.75;;;;;;;;;;5080655;28;20035;-61
2023/09/06 00:35:25;;;;;;;11.10;10.60;;;;;;;;;;5077309;28;20076;-60
2023/09/06 00:37:51;;;;;;;11.35;10.85;;;;;;;;;;5089210;28;20019;-61
2023/09/06 00:40:18;;;;;;;11.02;10.52;;;;;;;;;;5087211;28;20404;-60
2023/09/06 00:42:53;;;;;;;11.32;10.82;;;;;;;;;;5085660;28;20486;-60
2023/09/06 00:45:22;;;;;;;11.05;10.55;;;;;;;;;;5086870;28;20395;-61
2023/09/06 00:47:48;;;;;;;11.00;10.50;;;;;;;;;;5082671;28;20028;-61
2023/09/06 00:50:14;;;;;;;10.77;10.27;;;;;;;;;;5082279;28;20483;-61
2023/09/06 00:52:40;;;;;;;10.85;10.35;;;;;;;;;;5078817;28;20126;-62
2023/09/06 00:55:06;;;;;;;11.20;10.70;;;;;;;;;;5083768;28;20024;-61
2023/09/06 00:57:32;;;;;;;11.00;10.50;;;;;;;;;;5084790;28;20050;-62
2023/09/06 00:59:58;;;;;;;10.90;10.40;;;;;;;;;;5088905;28;20047;-61
2023/09/06 01:02:24;;;;;;;11.30;10.80;;;;;;;;;;5087678;28;20024;-61
2023/09/06 01:04:49;;;;;;;11.00;10.50;;;;;;;;;;5072472;28;20056;-61
2023/09/06 01:07:14;;;;;;;11.02;10.52;;;;;;;;;;5082785;28;20046;-61
2023/09/06 01:09:40;;;;;;;10.90;10.40;;;;;;;;;;5085657;28;20028;-62
2023/09/06 01:12:10;;;;;;;11.13;10.63;;;;;;;;;;5084640;28;20031;-61
2023/09/06 01:14:39;;;;;;;11.27;10.77;;;;;;;;;;5086320;28;20020;-62
2023/09/06 01:17:06;;;;;;;11.13;10.63;;;;;;;;;;5080077;28;20390;-61
2023/09/06 01:19:32;;;;;;;11.25;10.75;;;;;;;;;;5085776;28;20027;-61
2023/09/06 01:22:04;;;;;;;10.82;10.32;;;;;;;;;;5082188;28;20050;-60
2023/09/06 01:24:29;;;;;;;11.07;10.57;;;;;;;;;;5080094;28;20487;-60
2023/09/06 01:26:55;;;;;;;11.00;10.50;;;;;;;;;;5084116;28;20031;-61
2023/09/06 01:29:20;;;;;;;10.90;10.40;;;;;;;;;;5083800;28;20012;-60
2023/09/06 01:31:46;;;;;;;10.70;10.20;;;;;;;;;;5082239;28;20016;-60
2023/09/06 01:34:11;;;;;;;10.85;10.35;;;;;;;;;;5083397;28;20024;-61
2023/09/06 01:36:37;;;;;;;11.60;11.10;;;;;;;;;;5082792;28;20051;-61
2023/09/06 01:39:02;;;;;;;10.90;10.40;;;;;;;;;;5089821;28;20020;-60
2023/09/06 01:41:27;;;;;;;10.82;10.32;;;;;;;;;;5085366;28;20035;-59
2023/09/06 01:43:54;;;;;;;11.30;10.80;;;;;;;;;;5083391;28;20484;-60
2023/09/06 01:46:20;;;;;;;11.13;10.63;;;;;;;;;;5081405;28;20547;-62
2023/09/06 01:48:46;;;;;;;11.30;10.80;;;;;;;;;;5087243;28;20413;-61
2023/09/06 01:51:13;;;;;;;10.82;10.32;;;;;;;;;;5077812;28;20094;-61
2023/09/06 01:53:38;;;;;;;10.98;10.48;;;;;;;;;;5080391;28;20028;-61
2023/09/06 01:56:04;;;;;;;11.13;10.63;;;;;;;;;;5093122;28;20058;-61
2023/09/06 01:58:32;;;;;;;11.00;10.50;;;;;;;;;;5082780;28;20032;-60
2023/09/06 02:00:58;;;;;;;10.93;10.43;;;;;;;;;;5081268;28;20028;-63
2023/09/06 02:03:23;;;;;;;11.05;10.55;;;;;;;;;;5082279;28;20051;-61
2023/09/06 02:05:48;;;;;;;11.13;10.63;;;;;;;;;;5088649;28;20043;-61
2023/09/06 02:08:13;;;;;;;10.93;10.43;;;;;;;;;;5080291;28;20053;-60
2023/09/06 02:10:40;;;;;;;11.00;10.50;;;;;;;;;;5086381;28;20487;-61
2023/09/06 02:13:06;;;;;;;11.07;10.57;;;;;;;;;;5084047;28;20116;-61
2023/09/06 02:15:31;;;;;;;10.88;10.38;;;;;;;;;;5082725;28;20051;-61
2023/09/06 02:17:57;;;;;;;11.05;10.55;;;;;;;;;;5085949;28;20020;-60
2023/09/06 02:20:24;;;;;;;10.88;10.38;;;;;;;;;;5084892;28;20073;-61
2023/09/06 02:22:59;;;;;;;11.00;10.50;;;;;;;;;;5090906;28;20483;-61
2023/09/06 02:25:28;;;;;;;11.20;10.70;;;;;;;;;;5089355;28;20107;-61
2023/09/06 02:27:54;;;;;;;11.07;10.57;;;;;;;;;;5090166;28;20032;-60
2023/09/06 02:30:20;;;;;;;10.80;10.30;;;;;;;;;;5086567;28;20024;-61
2023/09/06 02:32:47;;;;;;;10.68;10.18;;;;;;;;;;5082705;28;20044;-60
2023/09/06 02:35:12;;;;;;;11.18;10.68;;;;;;;;;;5086511;28;20498;-60
2023/09/06 02:37:38;;;;;;;10.95;10.45;;;;;;;;;;5077100;28;20103;-61
2023/09/06 02:40:09;;;;;;;10.85;10.35;;;;;;;;;;5087070;28;20573;-61
2023/09/06 02:42:36;;;;;;;10.60;10.10;;;;;;;;;;5090808;28;20352;-61
2023/09/06 02:45:03;;;;;;;10.88;10.38;;;;;;;;;;5088383;28;20519;-61
2023/09/06 02:47:28;;;;;;;10.80;10.30;;;;;;;;;;5090030;28;20069;-62
2023/09/06 02:49:55;;;;;;;10.80;10.30;;;;;;;;;;5085979;28;20023;-61
2023/09/06 02:52:28;;;;;;;10.90;10.40;;;;;;;;;;5086607;28;20016;-62
2023/09/06 02:54:54;;;;;;;11.13;10.63;;;;;;;;;;5085831;28;20019;-59
2023/09/06 02:57:20;;;;;;;10.73;10.23;;;;;;;;;;5081952;28;20119;-61
2023/09/06 02:59:45;;;;;;;10.98;10.48;;;;;;;;;;5086524;28;20203;-61
2023/09/06 03:02:12;;;;;;;11.00;10.50;;;;;;;;;;5090208;28;20545;-61
2023/09/06 03:04:37;;;;;;;11.18;10.68;;;;;;;;;;5087690;28;20044;-61
2023/09/06 03:07:07;;;;;;;11.93;11.32;;;;;;;;;;5080437;28;20449;-62
2023/09/06 03:09:35;;;;;;;11.30;10.80;;;;;;;;;;5089115;28;20425;-61
2023/09/06 03:12:14;;;;;;;11.00;10.50;;;;;;;;;;5087069;28;20107;-60
2023/09/06 03:14:43;;;;;;;10.98;10.48;;;;;;;;;;5087006;28;20104;-61
2023/09/06 03:17:09;;;;;;;11.18;10.68;;;;;;;;;;5090762;28;20024;-62
2023/09/06 03:19:38;;;;;;;11.32;10.82;;;;;;;;;;5090242;28;20020;-61
2023/09/06 03:22:06;;;;;;;11.25;10.75;;;;;;;;;;5088503;28;20016;-60
2023/09/06 03:24:31;;;;;;;10.98;10.48;;;;;;;;;;5090086;28;20512;-60
2023/09/06 03:26:58;;;;;;;11.20;10.70;;;;;;;;;;5084343;28;20028;-60
2023/09/06 03:29:24;;;;;;;11.35;10.85;;;;;;;;;;5078596;28;20103;-61
2023/09/06 03:31:53;;;;;;;10.77;10.27;;;;;;;;;;5085156;28;20529;-61
2023/09/06 03:34:18;;;;;;;10.98;10.48;;;;;;;;;;5086257;28;20052;-61
2023/09/06 03:36:46;;;;;;;10.90;10.40;;;;;;;;;;5087165;28;20043;-60
2023/09/06 03:39:12;;;;;;;11.10;10.60;;;;;;;;;;5084437;28;20019;-61
2023/09/06 03:41:38;;;;;;;10.60;10.10;;;;;;;;;;5089936;28;20565;-61
2023/09/06 03:44:04;;;;;;;12.10;11.50;;;;;;;;;;5083562;28;20032;-61
2023/09/06 03:46:29;;;;;;;10.70;10.20;;;;;;;;;;5086665;28;20403;-61
2023/09/06 03:48:54;;;;;;;11.13;10.63;;;;;;;;;;5081802;28;20441;-60
2023/09/06 03:51:20;;;;;;;10.80;10.30;;;;;;;;;;5088216;28;20020;-61
2023/09/06 03:53:47;;;;;;;11.25;10.75;;;;;;;;;;5083638;28;20016;-62
2023/09/06 03:56:13;;;;;;;11.05;10.55;;;;;;;;;;5083328;28;20016;-61
2023/09/06 03:58:40;;;;;;;11.63;11.13;;;;;;;;;;5087568;28;20024;-61
2023/09/06 04:01:10;;;;;;;10.93;10.43;;;;;;;;;;5090376;28;20031;-62
2023/09/06 04:03:38;;;;;;;10.98;10.48;;;;;;;;;;5086183;28;20422;-61
2023/09/06 04:06:03;;;;;;;11.43;10.93;;;;;;;;;;5077860;28;20025;-61
2023/09/06 04:08:28;;;;;;;11.18;10.68;;;;;;;;;;5080226;28;20093;-62
2023/09/06 04:10:54;;;;;;;11.27;10.77;;;;;;;;;;5089145;28;20024;-61
2023/09/06 04:13:19;;;;;;;11.20;10.70;;;;;;;;;;5086465;28;20024;-61
2023/09/06 04:15:44;;;;;;;11.15;10.65;;;;;;;;;;5085070;28;20675;-61
2023/09/06 04:18:10;;;;;;;11.63;11.13;;;;;;;;;;5085618;28;20044;-61
2023/09/06 04:20:36;;;;;;;11.35;10.85;;;;;;;;;;5082870;28;21627;-61
2023/09/06 04:23:05;;;;;;;11.98;11.48;;;;;;;;;;5088025;28;20436;-62
2023/09/06 04:25:33;;;;;;;11.52;11.02;;;;;;;;;;5084553;28;20395;-60
2023/09/06 04:27:59;;;;;;;11.63;11.13;;;;;;;;;;5086867;28;20031;-60
2023/09/06 04:30:25;;;;;;;11.40;10.90;;;;;;;;;;5082003;28;20103;-61
2023/09/06 04:32:53;;;;;;;11.85;11.35;;;;;;;;;;5087356;28;20090;-61
2023/09/06 04:35:18;;;;;;;12.00;11.50;;;;;;;;;;5080548;28;20040;-62
2023/09/06 04:37:44;;;;;;;11.85;11.35;;;;;;;;;;5080385;28;20032;-61
2023/09/06 04:40:11;;;;;;;11.75;11.25;;;;;;;;;;5084026;28;20027;-61
2023/09/06 04:42:37;;;;;;;12.00;11.50;;;;;;;;;;5090800;28;20028;-61
2023/09/06 04:45:03;;;;;;;12.15;11.65;;;;;;;;;;5078852;28;20047;-61
2023/09/06 04:47:30;;;;;;;12.00;11.50;;;;;;;;;;5090128;28;20016;-62
2023/09/06 04:49:55;;;;;;;11.90;11.40;;;;;;;;;;5080544;28;20048;-61
2023/09/06 04:52:22;;;;;;;11.95;11.45;;;;;;;;;;5081410;28;20048;-61
2023/09/06 04:54:47;;;;;;;12.05;11.55;;;;;;;;;;5081183;28;20067;-59
2023/09/06 04:57:13;;;;;;;12.10;11.60;;;;;;;;;;5083519;28;20420;-59
2023/09/06 04:59:39;;;;;;;11.57;11.07;;;;;;;;;;5084281;28;20050;-60
2023/09/06 05:02:04;;;;;;;11.77;11.27;;;;;;;;;;5084651;28;20467;-59
2023/09/06 05:04:30;;;;;;;12.03;11.53;;;;;;;;;;5085278;28;20351;-60
2023/09/06 05:06:55;;;;;;;11.88;11.38;;;;;;;;;;5086752;28;20640;-60
2023/09/06 05:09:21;;;;;;;12.23;11.73;;;;;;;;;;5085797;28;20020;-60
2023/09/06 05:11:47;;;;;;;11.88;11.38;;;;;;;;;;5082058;28;20020;-59
2023/09/06 05:14:12;;;;;;;11.95;11.45;;;;;;;;;;5085301;28;20036;-60
2023/09/06 05:16:37;;;;;;;12.07;11.57;;;;;;;;;;5084125;28;20540;-60
2023/09/06 05:19:03;;;;;;;12.13;11.63;;;;;;;;;;5086142;28;20256;-59
2023/09/06 05:21:28;;;;;;;12.20;11.70;;;;;;;;;;5085326;28;20432;-59
2023/09/06 05:23:53;;;;;;;11.97;11.47;;;;;;;;;;5085142;28;20051;-60
2023/09/06 05:26:20;;;;;;;12.07;11.57;;;;;;;;;;5079497;28;20705;-59
2023/09/06 05:28:47;;;;;;;12.23;11.73;;;;;;;;;;5079097;28;20081;-60
2023/09/06 05:31:12;;;;;;;12.02;11.52;;;;;;;;;;5080015;28;21133;-59
2023/09/06 05:33:37;;;;;;;11.90;11.40;;;;;;;;;;5075462;28;20020;-60
2023/09/06 05:36:03;;;;;;;11.98;11.48;;;;;;;;;;5076627;28;20303;-60
2023/09/06 05:38:28;;;;;;;12.13;11.63;;;;;;;;;;5078886;28;20028;-60
2023/09/06 05:40:53;;;;;;;11.97;11.47;;;;;;;;;;5079618;28;20082;-60
2023/09/06 05:43:19;;;;;;;12.25;11.75;;;;;;;;;;5080552;28;20256;-60
2023/09/06 05:45:44;;;;;;;12.20;11.70;;;;;;;;;;5081620;28;20106;-60
2023/09/06 05:48:09;;;;;;;12.00;11.50;;;;;;;;;;5084775;28;20322;-62
2023/09/06 05:50:35;;;;;;;12.20;11.70;;;;;;;;;;5082045;28;20249;-60
2023/09/06 05:53:00;;;;;;;12.13;11.63;;;;;;;;;;5078704;28;20112;-60
2023/09/06 05:55:25;;;;;;;12.20;11.70;;;;;;;;;;5084189;28;20731;-60
2023/09/06 05:57:51;;;;;;;12.10;11.60;;;;;;;;;;5085454;28;20028;-60
2023/09/06 06:00:17;;;;;;;12.13;11.63;;;;;;;;;;5082873;28;20424;-62
2023/09/06 06:02:42;;;;;;;12.40;11.88;;;;;;;;;;5083466;28;21297;-60
2023/09/06 06:05:09;;;;;;;12.20;11.70;;;;;;;;;;5083332;28;20049;-60
2023/09/06 06:07:34;;;;;;;12.23;11.73;;;;;;;;;;5085868;28;20020;-60
2023/09/06 06:09:59;;;;;;;12.25;11.75;;;;;;;;;;5083645;28;20069;-61
2023/09/06 06:12:25;;;;;;;11.95;11.45;;;;;;;;;;5080167;28;20095;-60
2023/09/06 06:14:51;;;;;;;12.20;11.70;;;;;;;;;;5085123;28;20048;-60
2023/09/06 06:17:17;;;;;;;11.98;11.48;;;;;;;;;;5084063;28;20065;-60
2023/09/06 06:19:43;;;;;;;12.43;11.90;;;;;;;;;;5082147;28;20095;-63
2023/09/06 06:22:09;;;;;;;12.48;11.90;;;;;;;;;;5083963;28;20016;-60
2023/09/06 06:24:34;;;;;;;12.25;11.75;;;;;;;;;;5085420;28;20024;-61
2023/09/06 06:27:00;;;;;;;12.18;11.68;;;;;;;;;;5086378;28;20035;-61
2023/09/06 06:29:25;;;;;;;12.30;11.80;;;;;;;;;;5083370;28;20028;-60
2023/09/06 06:31:51;;;;;;;12.30;11.80;;;;;;;;;;5084297;28;20027;-60
2023/09/06 06:34:18;;;;;;;12.15;11.65;;;;;;;;;;5083115;28;20275;-61
2023/09/06 06:36:44;;;;;;;12.30;11.80;;;;;;;;;;5078004;28;20048;-62
2023/09/06 06:39:10;;;;;;;12.30;11.80;;;;;;;;;;5082198;28;20490;-61
2023/09/06 06:41:36;;;;;;;12.55;11.98;;;;;;;;;;5070432;28;20180;-71
2023/09/06 06:44:01;;;;;;;12.13;11.63;;;;;;;;;;5077178;28;20024;-66
2023/09/06 06:46:33;;;;;;;12.30;11.80;;;;;;;;;;5078353;28;20021;-65
2023/09/06 06:48:59;;;;;;;11.98;11.48;;;;;;;;;;5083959;28;20145;-67
2023/09/06 06:51:34;;;;;;;12.30;11.80;;;;;;;;;;5098362;28;20471;-67
2023/09/06 06:54:00;;;;;;;12.13;11.63;;;;;;;;;;5081919;28;20025;-67
2023/09/06 06:56:25;;;;;;;12.30;11.80;;;;;;;;;;5078341;28;20017;-65
2023/09/06 06:58:51;;;;;;;12.10;11.60;;;;;;;;;;5084534;28;20032;-66
2023/09/06 07:01:16;;;;;;;12.27;11.77;;;;;;;;;;5078417;28;20264;-66
2023/09/06 07:03:41;;;;;;;11.88;11.38;;;;;;;;;;5084252;28;20312;-66
2023/09/06 07:06:08;;;;;;;11.90;11.40;;;;;;;;;;5080317;28;20024;-66
2023/09/06 07:08:33;;;;;;;12.00;11.50;;;;;;;;;;5086904;28;20275;-67
2023/09/06 07:10:59;;;;;;;11.93;11.43;;;;;;;;;;5082506;28;20020;-67
2023/09/06 07:13:25;;;;;;;12.25;11.75;;;;;;;;;;5082568;28;20047;-66
2023/09/06 07:15:50;;;;;;;12.00;11.50;;;;;;;;;;5087726;28;20067;-65
2023/09/06 07:18:16;;;;;;;12.10;11.60;;;;;;;;;;5082248;28;20020;-65
2023/09/06 07:20:41;;;;;;;11.98;11.48;;;;;;;;;;5086597;28;20021;-67
2023/09/06 07:23:07;;;;;;;12.32;11.82;;;;;;;;;;5083483;28;20024;-65
2023/09/06 07:25:33;;;;;;;12.10;11.60;;;;;;;;;;5086342;28;20020;-65
2023/09/06 07:27:59;;;;;;;12.17;11.67;;;;;;;;;;5088276;28;20608;-65
2023/09/06 07:30:25;;;;;;;12.10;11.60;;;;;;;;;;5087326;28;20346;-65
2023/09/06 07:32:50;;;;;;;12.10;11.60;;;;;;;;;;5080465;28;20113;-66
2023/09/06 07:35:15;;;;;;;12.10;11.60;;;;;;;;;;5080614;28;20031;-66
2023/09/06 07:37:43;;;;;;;12.10;11.60;;;;;;;;;;5082611;28;20782;-64
2023/09/06 07:40:09;;;;;;;12.00;11.50;;;;;;;;;;5084600;28;20020;-65
2023/09/06 07:42:40;;;;;;;12.00;11.50;;;;;;;;;;5079970;28;20020;-66
2023/09/06 07:45:07;;;;;;;11.90;11.40;;;;;;;;;;5087034;28;20107;-65
2023/09/06 07:47:32;;;;;;;12.25;11.75;;;;;;;;;;5083647;28;20019;-64
2023/09/06 07:49:57;;;;;;;12.10;11.60;;;;;;;;;;5087513;28;20036;-65
2023/09/06 07:52:22;;;;;;;12.38;11.88;;;;;;;;;;5081681;28;20275;-66
2023/09/06 07:54:48;;;;;;;11.93;11.43;;;;;;;;;;5082244;28;20024;-68
2023/09/06 07:57:13;;;;;;;11.60;11.10;;;;;;;;;;5079201;28;20028;-66
2023/09/06 07:59:38;;;;;;;12.27;11.77;;;;;;;;;;5083080;28;20016;-64
2023/09/06 08:02:04;;;;;;;12.00;11.50;;;;;;;;;;5087113;28;20062;-66
2023/09/06 08:04:29;;;;;;;12.10;11.60;;;;;;;;;;5082070;28;20056;-65
2023/09/06 08:06:55;;;;;;;12.00;11.50;;;;;;;;;;5085060;28;20032;-65
2023/09/06 08:09:20;;;;;;;11.80;11.30;;;;;;;;;;5082932;28;20036;-68
2023/09/06 08:11:46;;;;;;;12.00;11.50;;;;;;;;;;5081064;28;20020;-65
2023/09/06 08:14:11;;;;;;;11.90;11.40;;;;;;;;;;5082058;28;20569;-67
2023/09/06 08:16:36;;;;;;;11.88;11.38;;;;;;;;;;5081880;28;20788;-67
2023/09/06 08:19:03;;;;;;;12.00;11.50;;;;;;;;;;5079538;28;20016;-66
2023/09/06 08:21:29;;;;;;;12.20;11.70;;;;;;;;;;5081150;28;20862;-67
2023/09/06 08:23:54;;;;;;;12.20;11.70;;;;;;;;;;5088114;28;20044;-66
2023/09/06 08:26:19;;;;;;;11.87;11.37;;;;;;;;;;5080421;28;20031;-66
2023/09/06 08:28:44;;;;;;;12.20;11.70;;;;;;;;;;5084274;28;20029;-66
2023/09/06 08:31:10;;;;;;;11.93;11.43;;;;;;;;;;5086934;28;20276;-67
2023/09/06 08:33:36;;;;;;;12.48;11.90;;;;;;;;;;5081709;28;20043;-64
2023/09/06 08:36:01;;;;;;;12.50;11.93;;;;;;;;;;5079799;28;20024;-67
2023/09/06 08:38:27;;;;;;;12.55;11.95;;;;;;;;;;5080125;28;20021;-65
2023/09/06 08:40:52;;;;;;;12.00;11.50;;;;;;;;;;5082316;28;20367;-65
2023/09/06 08:43:18;;;;;;;11.82;11.32;;;;;;;;;;5083403;28;20023;-64
2023/09/06 08:45:45;;;;;;;12.30;11.80;;;;;;;;;;5082346;28;20027;-63
2023/09/06 08:48:11;;;;;;;12.20;11.70;;;;;;;;;;5079751;28;20031;-65
2023/09/06 08:50:37;;;;;;;11.93;11.43;;;;;;;;;;5086394;28;20024;-63
2023/09/06 08:53:04;;;;;;;12.20;11.70;;;;;;;;;;5079801;28;20040;-63
2023/09/06 08:55:30;;;;;;;12.20;11.70;;;;;;;;;;5082057;28;20012;-64
2023/09/06 08:57:56;;;;;;;12.13;11.63;;;;;;;;;;5086841;28;20052;-63
2023/09/06 09:00:23;;;;;;;11.90;11.40;;;;;;;;;;5080511;28;20013;-65
2023/09/06 09:02:49;;;;;;;12.00;11.50;;;;;;;;;;5080529;28;20028;-66
2023/09/06 09:05:14;;;;;;;11.88;11.38;;;;;;;;;;5082012;28;20052;-66
2023/09/06 09:07:39;;;;;;;11.77;11.27;;;;;;;;;;5086751;28;20108;-63
2023/09/06 09:10:09;;;;;;;11.57;11.07;;;;;;;;;;5087341;28;20051;-62
2023/09/06 09:12:35;;;;;;;11.52;11.02;;;;;;;;;;5080904;28;20043;-61
2023/09/06 09:15:02;;;;;;;12.32;11.82;;;;;;;;;;5086194;28;20394;-61
2023/09/06 09:17:28;;;;;;;11.68;11.18;;;;;;;;;;5089044;28;20091;-62
2023/09/06 09:19:54;;;;;;;11.65;11.15;;;;;;;;;;5089252;28;20112;-62
2023/09/06 09:22:30;;;;;;;12.10;11.60;;;;;;;;;;5078917;28;20483;-62
2023/09/06 09:24:57;;;;;;;11.63;11.13;;;;;;;;;;5079426;28;20028;-62
2023/09/06 09:27:23;;;;;;;12.00;11.50;;;;;;;;;;5086011;28;20091;-62
2023/09/06 09:29:49;;;;;;;11.70;11.20;;;;;;;;;;5085108;28;20526;-62
2023/09/06 09:32:14;;;;;;;12.02;11.52;;;;;;;;;;5079457;28;20033;-63
2023/09/06 09:34:41;;;;;;;11.90;11.40;;;;;;;;;;5079751;28;20016;-61
2023/09/06 09:37:09;;;;;;;11.75;11.25;;;;;;;;;;5078261;28;20023;-62
2023/09/06 09:39:34;;;;;;;12.30;11.77;;;;;;;;;;5078223;28;20115;-68
2023/09/06 09:42:00;;;;;;;12.07;11.57;;;;;;;;;;5075738;28;20104;-64
2023/09/06 09:44:25;;;;;;;12.05;11.55;;;;;;;;;;5080039;28;20391;-63
2023/09/06 09:46:53;;;;;;;12.15;11.65;;;;;;;;;;5080744;28;20028;-64
2023/09/06 09:49:20;;;;;;;12.32;11.80;;;;;;;;;;5087079;28;20016;-67
2023/09/06 09:51:48;;;;;;;12.52;11.93;;;;;;;;;;5081436;28;20028;-66
2023/09/06 09:54:15;;;;;;;12.45;11.90;;;;;;;;;;5079923;28;20071;-65
2023/09/06 09:56:41;;;;;;;11.68;11.18;;;;;;;;;;5084790;28;20462;-65
2023/09/06 09:59:08;;;;;;;12.35;11.82;;;;;;;;;;5083236;28;20036;-67
2023/09/06 10:01:33;;;;;;;12.18;11.68;;;;;;;;;;5084368;28;20027;-66
2023/09/06 10:03:59;;;;;;;12.60;12.00;;;;;;;;;;5078550;28;20067;-68
2023/09/06 10:06:26;;;;;;;12.30;11.80;;;;;;;;;;5078354;28;20024;-65
2023/09/06 10:08:54;;;;;;;12.50;11.90;;;;;;;;;;5078621;28;20070;-67
2023/09/06 10:11:20;;;;;;;12.02;11.52;;;;;;;;;;5089191;28;20031;-65
2023/09/06 10:13:46;;;;;;;12.77;12.18;;;;;;;;;;5080876;28;20020;-65
2023/09/06 10:16:12;;;;;;;12.18;11.68;;;;;;;;;;5081984;28;20116;-65
2023/09/06 10:18:38;;;;;;;12.55;11.95;;;;;;;;;;5085631;28;20024;-66
2023/09/06 10:21:04;;;;;;;12.40;11.80;;;;;;;;;;5082962;28;20016;-64
2023/09/06 10:23:31;;;;;;;11.85;11.35;;;;;;;;;;5083325;28;20043;-67
2023/09/06 10:25:58;;;;;;;12.40;11.80;;;;;;;;;;5077943;28;20031;-65
2023/09/06 10:28:24;;;;;;;12.15;11.65;;;;;;;;;;5084353;28;20430;-65
2023/09/06 10:30:51;;;;;;;12.00;11.50;;;;;;;;;;5078066;28;20032;-66
2023/09/06 10:33:46;;;;;;;12.15;11.65;;;;;;;;;;5086939;28;20032;-65
2023/09/06 10:36:13;;;;;;;12.20;11.70;;;;;;;;;;5076042;28;20024;-62
2023/09/06 10:38:52;;;;;;;12.27;11.77;;;;;;;;;;5079395;28;20027;-66
2023/09/06 10:41:18;;;;;;;12.15;11.65;;;;;;;;;;5081262;28;20107;-67
2023/09/06 10:43:44;;;;;;;12.50;11.90;;;;;;;;;;5083919;28;20012;-66
2023/09/06 10:46:09;;;;;;;12.93;12.33;;;;;;;;;;5086495;28;20052;-66
2023/09/06 10:48:34;;;;;;;11.63;11.13;;;;;;;;;;5089413;28;20265;-66
2023/09/06 10:51:03;;;;;;;12.20;11.70;;;;;;;;;;5085613;28;20325;-64
2023/09/06 10:53:30;;;;;;;11.70;11.20;;;;;;;;;;5087540;28;20114;-65
2023/09/06 10:55:56;;;;;;;12.50;11.90;;;;;;;;;;5086752;28;20043;-67
2023/09/06 10:58:23;;;;;;;12.10;11.60;;;;;;;;;;5086188;28;20066;-64
2023/09/06 11:01:09;;;;;;;12.25;11.70;;;;;;;;;;5082560;28;20106;-64
2023/09/06 11:03:34;;;;;;;12.68;12.07;;;;;;;;;;5084762;28;20109;-66
2023/09/06 11:06:04;;;;;;;12.48;11.90;;;;;;;;;;5081123;28;20044;-65
2023/09/06 11:08:30;;;;;;;12.27;11.77;;;;;;;;;;5084146;28;20039;-65
2023/09/06 11:10:59;;;;;;;11.60;11.10;;;;;;;;;;5085986;28;20107;-65
2023/09/06 11:13:29;;;;;;;12.20;11.70;;;;;;;;;;5084842;28;20059;-65
2023/09/06 11:15:55;;;;;;;12.50;11.90;;;;;;;;;;5081556;28;20541;-65
2023/09/06 11:18:20;;;;;;;11.85;11.35;;;;;;;;;;5083587;28;20109;-65
2023/09/06 11:20:46;;;;;;;12.15;11.65;;;;;;;;;;5078286;28;20024;-65
2023/09/06 11:23:12;;;;;;;12.02;11.52;;;;;;;;;;5086017;28;20100;-65
2023/09/06 11:25:38;;;;;;;12.05;11.55;;;;;;;;;;5081779;28;20103;-64
2023/09/06 11:28:14;;;;;;;11.95;11.45;;;;;;;;;;5080631;28;21071;-66
2023/09/06 11:30:39;;;;;;;12.35;11.80;;;;;;;;;;5081733;28;20059;-65
2023/09/06 11:33:07;;;;;;;12.18;11.68;;;;;;;;;;5084358;28;20103;-65
2023/09/06 11:35:35;;;;;;;12.30;11.80;;;;;;;;;;5078220;28;20431;-66
2023/09/06 11:38:02;;;;;;;12.18;11.68;;;;;;;;;;5081482;28;20029;-65
2023/09/06 11:40:31;;;;;;;12.00;11.50;;;;;;;;;;5079344;28;20020;-66
2023/09/06 11:43:10;;;;;;;12.15;11.65;;;;;;;;;;5085539;28;20035;-65
2023/09/06 11:45:35;;;;;;;11.95;11.45;;;;;;;;;;5080412;28;20038;-63
2023/09/06 11:48:07;;;;;;;11.95;11.45;;;;;;;;;;5085215;28;20024;-64
2023/09/06 11:50:34;;;;;;;12.70;12.10;;;;;;;;;;5082685;28;20032;-65
2023/09/06 11:53:04;;;;;;;12.18;11.68;;;;;;;;;;5082178;28;20024;-65
2023/09/06 11:55:32;;;;;;;12.10;11.60;;;;;;;;;;5084091;28;20085;-65
2023/09/06 11:57:57;;;;;;;11.95;11.45;;;;;;;;;;5083009;28;20081;-65
2023/09/06 12:00:27;;;;;;;12.60;12.00;;;;;;;;;;5080623;28;20020;-65
2023/09/06 12:03:13;;;;;;;12.20;11.70;;;;;;;;;;5082699;28;20055;-65
2023/09/06 12:05:43;;;;;;;12.20;11.70;;;;;;;;;;5085259;28;20029;-64
2023/09/06 12:08:20;;;;;;;11.68;11.18;;;;;;;;;;5083310;28;20173;-68
2023/09/06 12:10:53;;;;;;;11.80;11.30;;;;;;;;;;5085046;28;20016;-64
2023/09/06 12:13:29;;;;;;;11.65;11.15;;;;;;;;;;5084326;28;20128;-64
2023/09/06 12:15:58;;;;;;;11.60;11.10;;;;;;;;;;5084104;28;20031;-66
2023/09/06 12:18:28;;;;;;;12.05;11.55;;;;;;;;;;5087102;28;20081;-64
2023/09/06 12:20:54;;;;;;;12.10;11.60;;;;;;;;;;5083260;28;20099;-66
2023/09/06 12:23:19;;;;;;;11.63;11.13;;;;;;;;;;5076410;28;20539;-65
2023/09/06 12:25:45;;;;;;;11.75;11.25;;;;;;;;;;5083203;28;20023;-65
2023/09/06 12:28:10;;;;;;;12.00;11.50;;;;;;;;;;5078265;28;20475;-65
2023/09/06 12:30:35;;;;;;;11.82;11.32;;;;;;;;;;5085115;28;20019;-65
2023/09/06 12:33:01;;;;;;;12.27;11.77;;;;;;;;;;5086066;28;20105;-65
2023/09/06 12:35:26;;;;;;;11.75;11.25;;;;;;;;;;5084700;28;20008;-66
2023/09/06 12:37:52;;;;;;;12.00;11.50;;;;;;;;;;5077299;28;20024;-64
2023/09/06 12:40:20;;;;;;;11.95;11.45;;;;;;;;;;5080073;28;20840;-65
2023/09/06 12:42:46;;;;;;;12.02;11.52;;;;;;;;;;5083506;28;20035;-64
2023/09/06 12:45:33;;;;;;;11.75;11.25;;;;;;;;;;5083200;28;20020;-65
2023/09/06 12:47:59;;;;;;;12.25;11.75;;;;;;;;;;5078840;28;20084;-64
2023/09/06 12:50:25;;;;;;;12.15;11.65;;;;;;;;;;5079049;28;20016;-65
2023/09/06 12:52:50;;;;;;;12.05;11.55;;;;;;;;;;5082550;28;20368;-66
2023/09/06 12:55:16;;;;;;;11.95;11.45;;;;;;;;;;5083721;28;20052;-64
2023/09/06 12:57:42;;;;;;;11.98;11.48;;;;;;;;;;5083211;28;20103;-65
2023/09/06 13:00:10;;;;;;;12.57;11.98;;;;;;;;;;5085648;28;20087;-66
2023/09/06 13:02:35;;;;;;;11.85;11.35;;;;;;;;;;5086671;28;20028;-65
2023/09/06 13:05:01;;;;;;;11.80;11.30;;;;;;;;;;5081234;28;20048;-65
2023/09/06 13:07:26;;;;;;;12.02;11.52;;;;;;;;;;5084807;28;20463;-65
2023/09/06 13:09:52;;;;;;;12.13;11.63;;;;;;;;;;5077971;28;20024;-65
2023/09/06 13:12:17;;;;;;;11.82;11.32;;;;;;;;;;5082404;28;20062;-64
2023/09/06 13:14:42;;;;;;;12.15;11.65;;;;;;;;;;5081286;28;20098;-67
2023/09/06 13:17:08;;;;;;;12.10;11.60;;;;;;;;;;5084776;28;20491;-64
2023/09/06 13:19:33;;;;;;;11.90;11.40;;;;;;;;;;5079692;28;20012;-64
2023/09/06 13:21:58;;;;;;;12.20;11.70;;;;;;;;;;5074960;28;20036;-65
2023/09/06 13:24:24;;;;;;;11.88;11.38;;;;;;;;;;5081650;28;20076;-66
2023/09/06 13:26:49;;;;;;;11.98;11.48;;;;;;;;;;5076619;28;20028;-64
2023/09/06 13:29:15;;;;;;;11.48;10.98;;;;;;;;;;5080915;28;20077;-64
2023/09/06 13:31:40;;;;;;;11.85;11.35;;;;;;;;;;5080139;28;20119;-65
2023/09/06 13:34:06;;;;;;;11.55;11.05;;;;;;;;;;5079879;28;20118;-64
2023/09/06 13:36:35;;;;;;;11.50;11.00;;;;;;;;;;5085384;28;20028;-61
2023/09/06 13:39:03;;;;;;;12.07;11.57;;;;;;;;;;5081090;28;20020;-61
2023/09/06 13:41:29;;;;;;;11.95;11.45;;;;;;;;;;5083906;28;20008;-61
2023/09/06 13:43:54;;;;;;;11.93;11.43;;;;;;;;;;5086156;28;20031;-61
2023/09/06 13:46:19;;;;;;;11.38;10.88;;;;;;;;;;5088993;28;20027;-61
2023/09/06 13:48:45;;;;;;;11.90;11.40;;;;;;;;;;5084207;28;20023;-62
2023/09/06 13:51:10;;;;;;;11.40;10.90;;;;;;;;;;5081793;28;20036;-62
2023/09/06 13:53:35;;;;;;;12.02;11.52;;;;;;;;;;5082553;28;20454;-64
2023/09/06 13:56:01;;;;;;;11.60;11.10;;;;;;;;;;5084183;28;20879;-64
2023/09/06 13:58:26;;;;;;;11.47;10.97;;;;;;;;;;5086191;28;20476;-65
2023/09/06 14:00:55;;;;;;;11.73;11.23;;;;;;;;;;5083955;28;20257;-64
2023/09/06 14:03:21;;;;;;;11.90;11.40;;;;;;;;;;5083454;28;20040;-63
2023/09/06 14:05:47;;;;;;;11.70;11.20;;;;;;;;;;5082253;28;20029;-64
2023/09/06 14:08:12;;;;;;;11.90;11.40;;;;;;;;;;5080969;28;20892;-63
2023/09/06 14:10:37;;;;;;;12.17;11.63;;;;;;;;;;5080509;28;20039;-63
2023/09/06 14:13:03;;;;;;;12.05;11.55;;;;;;;;;;5084992;28;20290;-64